sensor_id;sensor_type;location;lat;lon;timestamp;P1;durP1;ratioP1;P2;durP2;ratioP2
67869;SDS011;54673;52.262;6.830;2024-01-30T00:02:15;17.13;;;6.15;;
67869;SDS011;54673;52.262;6.830;2024-01-30T00:04:41;11.52;;;5.38;;
67869;SDS011;54673;52.262;6.830;2024-01-30T00:07:07;11.52;;;6.53;;
67869;SDS011;54673;52.262;6.830;2024-01-30T00:09:32;13.10;;;6.27;;
67869;SDS011;54673;52.262;6.830;2024-01-30T00:11:58;16.42;;;6.72;;
67869;SDS011;54673;52.262;6.830;2024-01-30T00:14:24;11.63;;;6.40;;
67869;SDS011;54673;52.262;6.830;2024-01-30T00:16:50;16.15;;;7.22;;
67869;SDS011;54673;52.262;6.830;2024-01-30T00:19:17;19.50;;;6.70;;
67869;SDS011;54673;52.262;6.830;2024-01-30T00:21:42;13.13;;;7.18;;
67869;SDS011;54673;52.262;6.830;2024-01-30T00:24:08;15.77;;;7.17;;
67869;SDS011;54673;52.262;6.830;2024-01-30T00:26:34;17.30;;;7.97;;
67869;SDS011;54673;52.262;6.830;2024-01-30T00:28:59;17.40;;;7.33;;
67869;SDS011;54673;52.262;6.830;2024-01-30T00:31:25;17.48;;;8.20;;
67869;SDS011;54673;52.262;6.830;2024-01-30T00:33:51;22.60;;;8.50;;
67869;SDS011;54673;52.262;6.830;2024-01-30T00:36:17;16.95;;;8.10;;
67869;SDS011;54673;52.262;6.830;2024-01-30T00:38:42;19.30;;;7.53;;
67869;SDS011;54673;52.262;6.830;2024-01-30T00:41:08;15.30;;;7.50;;
67869;SDS011;54673;52.262;6.830;2024-01-30T00:43:34;12.17;;;6.97;;
67869;SDS011;54673;52.262;6.830;2024-01-30T00:46:00;17.92;;;8.02;;
67869;SDS011;54673;52.262;6.830;2024-01-30T00:48:26;13.57;;;6.30;;
67869;SDS011;54673;52.262;6.830;2024-01-30T00:50:51;11.38;;;6.05;;
67869;SDS011;54673;52.262;6.830;2024-01-30T00:53:17;15.80;;;7.43;;
67869;SDS011;54673;52.262;6.830;2024-01-30T00:55:43;17.57;;;7.27;;
67869;SDS011;54673;52.262;6.830;2024-01-30T00:58:08;19.67;;;7.57;;
67869;SDS011;54673;52.262;6.830;2024-01-30T01:00:34;14.97;;;6.73;;
67869;SDS011;54673;52.262;6.830;2024-01-30T01:02:59;15.00;;;6.80;;
67869;SDS011;54673;52.262;6.830;2024-01-30T01:05:25;14.20;;;6.87;;
67869;SDS011;54673;52.262;6.830;2024-01-30T01:07:51;15.15;;;7.72;;
67869;SDS011;54673;52.262;6.830;2024-01-30T01:10:17;11.27;;;6.03;;
67869;SDS011;54673;52.262;6.830;2024-01-30T01:12:43;17.48;;;7.32;;
67869;SDS011;54673;52.262;6.830;2024-01-30T01:15:09;12.90;;;6.13;;
67869;SDS011;54673;52.262;6.830;2024-01-30T01:17:38;16.00;;;7.57;;
67869;SDS011;54673;52.262;6.830;2024-01-30T01:20:04;14.05;;;7.38;;
67869;SDS011;54673;52.262;6.830;2024-01-30T01:22:31;16.23;;;7.20;;
67869;SDS011;54673;52.262;6.830;2024-01-30T01:24:58;15.13;;;7.63;;
67869;SDS011;54673;52.262;6.830;2024-01-30T01:27:24;15.50;;;6.83;;
67869;SDS011;54673;52.262;6.830;2024-01-30T01:29:49;16.95;;;7.28;;
67869;SDS011;54673;52.262;6.830;2024-01-30T01:32:15;12.60;;;6.20;;
67869;SDS011;54673;52.262;6.830;2024-01-30T01:34:41;18.80;;;7.27;;
67869;SDS011;54673;52.262;6.830;2024-01-30T01:37:06;13.13;;;6.10;;
67869;SDS011;54673;52.262;6.830;2024-01-30T01:39:32;11.48;;;5.72;;
67869;SDS011;54673;52.262;6.830;2024-01-30T01:41:58;15.13;;;6.43;;
67869;SDS011;54673;52.262;6.830;2024-01-30T01:44:23;14.30;;;6.63;;
67869;SDS011;54673;52.262;6.830;2024-01-30T01:46:49;12.40;;;6.33;;
67869;SDS011;54673;52.262;6.830;2024-01-30T01:49:16;16.27;;;7.10;;
67869;SDS011;54673;52.262;6.830;2024-01-30T01:51:42;16.13;;;6.73;;
67869;SDS011;54673;52.262;6.830;2024-01-30T01:54:09;13.52;;;6.85;;
67869;SDS011;54673;52.262;6.830;2024-01-30T01:56:36;17.23;;;7.60;;
67869;SDS011;54673;52.262;6.830;2024-01-30T01:59:07;15.23;;;7.05;;
67869;SDS011;54673;52.262;6.830;2024-01-30T02:01:33;16.87;;;7.43;;
67869;SDS011;54673;52.262;6.830;2024-01-30T02:04:01;12.93;;;7.10;;
67869;SDS011;54673;52.262;6.830;2024-01-30T02:06:27;14.20;;;6.10;;
67869;SDS011;54673;52.262;6.830;2024-01-30T02:08:53;14.80;;;7.10;;
67869;SDS011;54673;52.262;6.830;2024-01-30T02:11:22;13.85;;;7.18;;
67869;SDS011;54673;52.262;6.830;2024-01-30T02:13:49;16.33;;;7.60;;
67869;SDS011;54673;52.262;6.830;2024-01-30T02:16:15;16.23;;;7.38;;
67869;SDS011;54673;52.262;6.830;2024-01-30T02:18:42;15.37;;;7.17;;
67869;SDS011;54673;52.262;6.830;2024-01-30T02:21:10;17.90;;;7.57;;
67869;SDS011;54673;52.262;6.830;2024-01-30T02:23:36;13.00;;;6.70;;
67869;SDS011;54673;52.262;6.830;2024-01-30T02:26:02;13.40;;;6.88;;
67869;SDS011;54673;52.262;6.830;2024-01-30T02:28:28;15.33;;;7.33;;
67869;SDS011;54673;52.262;6.830;2024-01-30T02:30:53;14.95;;;7.03;;
67869;SDS011;54673;52.262;6.830;2024-01-30T02:33:19;13.87;;;7.10;;
67869;SDS011;54673;52.262;6.830;2024-01-30T02:35:46;12.75;;;6.15;;
67869;SDS011;54673;52.262;6.830;2024-01-30T02:38:12;14.80;;;6.63;;
67869;SDS011;54673;52.262;6.830;2024-01-30T02:40:38;12.95;;;7.18;;
67869;SDS011;54673;52.262;6.830;2024-01-30T02:43:04;13.30;;;6.67;;
67869;SDS011;54673;52.262;6.830;2024-01-30T02:45:29;15.30;;;7.75;;
67869;SDS011;54673;52.262;6.830;2024-01-30T02:47:55;19.83;;;6.87;;
67869;SDS011;54673;52.262;6.830;2024-01-30T02:50:20;11.57;;;6.43;;
67869;SDS011;54673;52.262;6.830;2024-01-30T02:52:48;17.73;;;7.35;;
67869;SDS011;54673;52.262;6.830;2024-01-30T02:55:14;14.57;;;7.47;;
67869;SDS011;54673;52.262;6.830;2024-01-30T02:57:42;19.15;;;7.82;;
67869;SDS011;54673;52.262;6.830;2024-01-30T03:00:08;15.40;;;8.50;;
67869;SDS011;54673;52.262;6.830;2024-01-30T03:02:34;17.02;;;7.72;;
67869;SDS011;54673;52.262;6.830;2024-01-30T03:05:01;11.60;;;6.18;;
67869;SDS011;54673;52.262;6.830;2024-01-30T03:07:26;13.80;;;6.90;;
67869;SDS011;54673;52.262;6.830;2024-01-30T03:09:52;15.30;;;6.95;;
67869;SDS011;54673;52.262;6.830;2024-01-30T03:12:20;20.60;;;8.30;;
67869;SDS011;54673;52.262;6.830;2024-01-30T03:14:46;15.38;;;6.57;;
67869;SDS011;54673;52.262;6.830;2024-01-30T03:17:12;14.93;;;7.00;;
67869;SDS011;54673;52.262;6.830;2024-01-30T03:19:37;17.37;;;7.50;;
67869;SDS011;54673;52.262;6.830;2024-01-30T03:22:03;14.40;;;7.00;;
67869;SDS011;54673;52.262;6.830;2024-01-30T03:24:28;13.23;;;6.90;;
67869;SDS011;54673;52.262;6.830;2024-01-30T03:26:54;15.50;;;6.97;;
67869;SDS011;54673;52.262;6.830;2024-01-30T03:29:19;14.23;;;6.82;;
67869;SDS011;54673;52.262;6.830;2024-01-30T03:31:45;16.13;;;7.33;;
67869;SDS011;54673;52.262;6.830;2024-01-30T03:34:10;16.17;;;6.83;;
67869;SDS011;54673;52.262;6.830;2024-01-30T03:36:36;15.55;;;6.60;;
67869;SDS011;54673;52.262;6.830;2024-01-30T03:39:02;14.33;;;7.20;;
67869;SDS011;54673;52.262;6.830;2024-01-30T03:41:27;15.77;;;6.77;;
67869;SDS011;54673;52.262;6.830;2024-01-30T03:43:53;13.63;;;7.00;;
67869;SDS011;54673;52.262;6.830;2024-01-30T03:46:18;15.37;;;7.10;;
67869;SDS011;54673;52.262;6.830;2024-01-30T03:48:44;15.47;;;6.33;;
67869;SDS011;54673;52.262;6.830;2024-01-30T03:51:10;16.75;;;6.55;;
67869;SDS011;54673;52.262;6.830;2024-01-30T03:53:40;13.88;;;7.15;;
67869;SDS011;54673;52.262;6.830;2024-01-30T03:56:07;14.13;;;7.40;;
67869;SDS011;54673;52.262;6.830;2024-01-30T03:58:33;13.98;;;7.53;;
67869;SDS011;54673;52.262;6.830;2024-01-30T04:00:58;16.83;;;7.40;;
67869;SDS011;54673;52.262;6.830;2024-01-30T04:03:24;15.50;;;6.25;;
67869;SDS011;54673;52.262;6.830;2024-01-30T04:05:51;11.67;;;6.73;;
67869;SDS011;54673;52.262;6.830;2024-01-30T04:08:17;10.77;;;5.82;;
67869;SDS011;54673;52.262;6.830;2024-01-30T04:10:43;13.47;;;6.53;;
67869;SDS011;54673;52.262;6.830;2024-01-30T04:13:08;14.87;;;7.57;;
67869;SDS011;54673;52.262;6.830;2024-01-30T04:15:34;13.38;;;6.47;;
67869;SDS011;54673;52.262;6.830;2024-01-30T04:18:00;13.27;;;6.83;;
67869;SDS011;54673;52.262;6.830;2024-01-30T04:20:25;13.60;;;6.47;;
67869;SDS011;54673;52.262;6.830;2024-01-30T04:22:51;13.60;;;6.67;;
67869;SDS011;54673;52.262;6.830;2024-01-30T04:25:16;15.43;;;6.63;;
67869;SDS011;54673;52.262;6.830;2024-01-30T04:27:42;14.67;;;7.17;;
67869;SDS011;54673;52.262;6.830;2024-01-30T04:30:08;14.40;;;6.70;;
67869;SDS011;54673;52.262;6.830;2024-01-30T04:32:35;15.32;;;6.78;;
67869;SDS011;54673;52.262;6.830;2024-01-30T04:35:01;12.60;;;6.47;;
67869;SDS011;54673;52.262;6.830;2024-01-30T04:37:26;15.48;;;6.22;;
67869;SDS011;54673;52.262;6.830;2024-01-30T04:39:52;11.77;;;6.50;;
67869;SDS011;54673;52.262;6.830;2024-01-30T04:42:18;14.73;;;6.55;;
67869;SDS011;54673;52.262;6.830;2024-01-30T04:44:43;13.30;;;6.53;;
67869;SDS011;54673;52.262;6.830;2024-01-30T04:47:09;13.53;;;6.40;;
67869;SDS011;54673;52.262;6.830;2024-01-30T04:49:36;17.38;;;7.38;;
67869;SDS011;54673;52.262;6.830;2024-01-30T04:52:06;13.82;;;6.97;;
67869;SDS011;54673;52.262;6.830;2024-01-30T04:54:32;15.67;;;6.83;;
67869;SDS011;54673;52.262;6.830;2024-01-30T04:56:59;18.05;;;7.55;;
67869;SDS011;54673;52.262;6.830;2024-01-30T04:59:25;14.23;;;6.87;;
67869;SDS011;54673;52.262;6.830;2024-01-30T05:01:51;16.10;;;6.45;;
67869;SDS011;54673;52.262;6.830;2024-01-30T05:04:16;16.10;;;7.03;;
67869;SDS011;54673;52.262;6.830;2024-01-30T05:06:42;14.90;;;6.57;;
67869;SDS011;54673;52.262;6.830;2024-01-30T05:09:08;14.25;;;6.22;;
67869;SDS011;54673;52.262;6.830;2024-01-30T05:11:37;13.25;;;6.80;;
67869;SDS011;54673;52.262;6.830;2024-01-30T05:14:06;18.23;;;6.93;;
67869;SDS011;54673;52.262;6.830;2024-01-30T05:16:33;14.55;;;6.85;;
67869;SDS011;54673;52.262;6.830;2024-01-30T05:18:59;16.30;;;6.93;;
67869;SDS011;54673;52.262;6.830;2024-01-30T05:21:25;12.60;;;6.45;;
67869;SDS011;54673;52.262;6.830;2024-01-30T05:23:50;17.57;;;7.80;;
67869;SDS011;54673;52.262;6.830;2024-01-30T05:26:16;16.52;;;6.93;;
67869;SDS011;54673;52.262;6.830;2024-01-30T05:28:42;15.17;;;7.47;;
67869;SDS011;54673;52.262;6.830;2024-01-30T05:31:09;13.43;;;7.15;;
67869;SDS011;54673;52.262;6.830;2024-01-30T05:33:35;14.43;;;7.27;;
67869;SDS011;54673;52.262;6.830;2024-01-30T05:36:00;19.15;;;7.40;;
67869;SDS011;54673;52.262;6.830;2024-01-30T05:38:26;17.10;;;7.97;;
67869;SDS011;54673;52.262;6.830;2024-01-30T05:40:52;17.67;;;7.85;;
67869;SDS011;54673;52.262;6.830;2024-01-30T05:43:17;14.83;;;7.53;;
67869;SDS011;54673;52.262;6.830;2024-01-30T05:45:43;13.23;;;6.27;;
67869;SDS011;54673;52.262;6.830;2024-01-30T05:48:09;15.43;;;6.63;;
67869;SDS011;54673;52.262;6.830;2024-01-30T05:50:35;14.50;;;6.57;;
67869;SDS011;54673;52.262;6.830;2024-01-30T05:53:00;14.95;;;7.28;;
67869;SDS011;54673;52.262;6.830;2024-01-30T05:55:26;13.50;;;6.77;;
67869;SDS011;54673;52.262;6.830;2024-01-30T05:57:51;15.40;;;6.32;;
67869;SDS011;54673;52.262;6.830;2024-01-30T06:00:17;14.07;;;7.22;;
67869;SDS011;54673;52.262;6.830;2024-01-30T06:02:43;15.07;;;7.50;;
67869;SDS011;54673;52.262;6.830;2024-01-30T06:05:09;17.07;;;7.70;;
67869;SDS011;54673;52.262;6.830;2024-01-30T06:07:34;17.03;;;6.87;;
67869;SDS011;54673;52.262;6.830;2024-01-30T06:10:00;16.30;;;7.75;;
67869;SDS011;54673;52.262;6.830;2024-01-30T06:12:27;15.23;;;8.10;;
67869;SDS011;54673;52.262;6.830;2024-01-30T06:14:53;14.75;;;6.97;;
67869;SDS011;54673;52.262;6.830;2024-01-30T06:17:21;14.63;;;7.68;;
67869;SDS011;54673;52.262;6.830;2024-01-30T06:19:50;14.82;;;8.15;;
67869;SDS011;54673;52.262;6.830;2024-01-30T06:22:15;18.40;;;8.20;;
67869;SDS011;54673;52.262;6.830;2024-01-30T06:24:41;15.23;;;7.20;;
67869;SDS011;54673;52.262;6.830;2024-01-30T06:27:07;13.93;;;6.60;;
67869;SDS011;54673;52.262;6.830;2024-01-30T06:29:33;14.88;;;6.85;;
67869;SDS011;54673;52.262;6.830;2024-01-30T06:31:59;16.93;;;7.77;;
67869;SDS011;54673;52.262;6.830;2024-01-30T06:34:24;15.38;;;7.40;;
67869;SDS011;54673;52.262;6.830;2024-01-30T06:36:51;17.52;;;7.85;;
67869;SDS011;54673;52.262;6.830;2024-01-30T06:39:17;11.67;;;6.50;;
67869;SDS011;54673;52.262;6.830;2024-01-30T06:41:42;17.20;;;6.70;;
67869;SDS011;54673;52.262;6.830;2024-01-30T06:44:08;17.03;;;7.13;;
67869;SDS011;54673;52.262;6.830;2024-01-30T06:46:35;15.45;;;7.57;;
67869;SDS011;54673;52.262;6.830;2024-01-30T06:49:00;17.30;;;7.03;;
67869;SDS011;54673;52.262;6.830;2024-01-30T06:51:26;10.73;;;6.05;;
67869;SDS011;54673;52.262;6.830;2024-01-30T06:53:52;15.10;;;6.90;;
67869;SDS011;54673;52.262;6.830;2024-01-30T06:56:17;13.87;;;7.60;;
67869;SDS011;54673;52.262;6.830;2024-01-30T06:58:52;15.02;;;7.22;;
67869;SDS011;54673;52.262;6.830;2024-01-30T07:01:17;13.32;;;6.65;;
67869;SDS011;54673;52.262;6.830;2024-01-30T07:03:43;16.63;;;7.20;;
67869;SDS011;54673;52.262;6.830;2024-01-30T07:06:09;15.43;;;6.93;;
67869;SDS011;54673;52.262;6.830;2024-01-30T07:08:37;14.32;;;6.63;;
67869;SDS011;54673;52.262;6.830;2024-01-30T07:11:04;17.17;;;7.38;;
67869;SDS011;54673;52.262;6.830;2024-01-30T07:13:31;14.55;;;6.57;;
67869;SDS011;54673;52.262;6.830;2024-01-30T07:15:56;14.70;;;6.80;;
67869;SDS011;54673;52.262;6.830;2024-01-30T07:18:22;13.77;;;7.00;;
67869;SDS011;54673;52.262;6.830;2024-01-30T07:20:48;18.05;;;7.60;;
67869;SDS011;54673;52.262;6.830;2024-01-30T07:23:14;17.45;;;7.82;;
67869;SDS011;54673;52.262;6.830;2024-01-30T07:25:43;17.20;;;7.13;;
67869;SDS011;54673;52.262;6.830;2024-01-30T07:28:09;15.67;;;7.10;;
67869;SDS011;54673;52.262;6.830;2024-01-30T07:30:35;14.38;;;6.68;;
67869;SDS011;54673;52.262;6.830;2024-01-30T07:33:01;16.60;;;6.80;;
67869;SDS011;54673;52.262;6.830;2024-01-30T07:35:27;19.83;;;7.85;;
67869;SDS011;54673;52.262;6.830;2024-01-30T07:37:52;14.63;;;6.97;;
67869;SDS011;54673;52.262;6.830;2024-01-30T07:40:18;15.32;;;7.10;;
67869;SDS011;54673;52.262;6.830;2024-01-30T07:42:44;14.07;;;6.97;;
67869;SDS011;54673;52.262;6.830;2024-01-30T07:45:09;15.50;;;7.03;;
67869;SDS011;54673;52.262;6.830;2024-01-30T07:47:35;14.63;;;7.07;;
67869;SDS011;54673;52.262;6.830;2024-01-30T07:50:00;15.15;;;7.05;;
67869;SDS011;54673;52.262;6.830;2024-01-30T07:52:26;21.67;;;6.80;;
67869;SDS011;54673;52.262;6.830;2024-01-30T07:54:52;21.83;;;7.10;;
67869;SDS011;54673;52.262;6.830;2024-01-30T07:57:17;15.27;;;6.50;;
67869;SDS011;54673;52.262;6.830;2024-01-30T07:59:43;13.27;;;6.60;;
67869;SDS011;54673;52.262;6.830;2024-01-30T08:02:09;15.93;;;7.10;;
67869;SDS011;54673;52.262;6.830;2024-01-30T08:04:35;15.30;;;6.83;;
67869;SDS011;54673;52.262;6.830;2024-01-30T08:07:01;14.13;;;6.82;;
67869;SDS011;54673;52.262;6.830;2024-01-30T08:09:26;14.33;;;6.70;;
67869;SDS011;54673;52.262;6.830;2024-01-30T08:11:52;12.77;;;6.90;;
67869;SDS011;54673;52.262;6.830;2024-01-30T08:14:18;12.00;;;6.43;;
67869;SDS011;54673;52.262;6.830;2024-01-30T08:16:43;14.37;;;7.23;;
67869;SDS011;54673;52.262;6.830;2024-01-30T08:19:09;14.98;;;6.82;;
67869;SDS011;54673;52.262;6.830;2024-01-30T08:21:34;13.00;;;6.47;;
67869;SDS011;54673;52.262;6.830;2024-01-30T08:24:02;11.70;;;5.82;;
67869;SDS011;54673;52.262;6.830;2024-01-30T08:26:29;12.30;;;6.03;;
67869;SDS011;54673;52.262;6.830;2024-01-30T08:28:55;17.42;;;7.00;;
67869;SDS011;54673;52.262;6.830;2024-01-30T08:31:20;12.47;;;5.90;;
67869;SDS011;54673;52.262;6.830;2024-01-30T08:33:46;11.77;;;6.50;;
67869;SDS011;54673;52.262;6.830;2024-01-30T08:36:12;14.80;;;6.15;;
67869;SDS011;54673;52.262;6.830;2024-01-30T08:38:37;13.07;;;5.90;;
67869;SDS011;54673;52.262;6.830;2024-01-30T08:41:03;15.63;;;6.03;;
67869;SDS011;54673;52.262;6.830;2024-01-30T08:43:28;11.50;;;6.07;;
67869;SDS011;54673;52.262;6.830;2024-01-30T08:45:54;18.02;;;7.20;;
67869;SDS011;54673;52.262;6.830;2024-01-30T08:48:20;14.23;;;5.57;;
67869;SDS011;54673;52.262;6.830;2024-01-30T08:50:47;12.35;;;5.78;;
67869;SDS011;54673;52.262;6.830;2024-01-30T08:53:13;8.37;;;4.83;;
67869;SDS011;54673;52.262;6.830;2024-01-30T08:55:38;14.07;;;6.82;;
67869;SDS011;54673;52.262;6.830;2024-01-30T08:58:04;11.82;;;6.38;;
67869;SDS011;54673;52.262;6.830;2024-01-30T09:00:30;14.60;;;7.10;;
67869;SDS011;54673;52.262;6.830;2024-01-30T09:02:55;12.20;;;6.32;;
67869;SDS011;54673;52.262;6.830;2024-01-30T09:05:21;13.10;;;6.13;;
67869;SDS011;54673;52.262;6.830;2024-01-30T09:07:46;12.43;;;5.90;;
67869;SDS011;54673;52.262;6.830;2024-01-30T09:10:12;13.13;;;6.47;;
67869;SDS011;54673;52.262;6.830;2024-01-30T09:12:37;11.37;;;6.17;;
67869;SDS011;54673;52.262;6.830;2024-01-30T09:15:03;11.17;;;6.07;;
67869;SDS011;54673;52.262;6.830;2024-01-30T09:17:29;12.73;;;6.18;;
67869;SDS011;54673;52.262;6.830;2024-01-30T09:19:55;13.38;;;6.20;;
67869;SDS011;54673;52.262;6.830;2024-01-30T09:22:20;16.55;;;6.00;;
67869;SDS011;54673;52.262;6.830;2024-01-30T09:24:46;11.33;;;5.47;;
67869;SDS011;54673;52.262;6.830;2024-01-30T09:27:11;11.38;;;5.75;;
67869;SDS011;54673;52.262;6.830;2024-01-30T09:29:37;12.80;;;5.53;;
67869;SDS011;54673;52.262;6.830;2024-01-30T09:32:03;13.93;;;7.27;;
67869;SDS011;54673;52.262;6.830;2024-01-30T09:34:29;12.75;;;6.47;;
67869;SDS011;54673;52.262;6.830;2024-01-30T09:36:55;15.60;;;7.80;;
67869;SDS011;54673;52.262;6.830;2024-01-30T09:39:21;13.17;;;6.40;;
67869;SDS011;54673;52.262;6.830;2024-01-30T09:41:51;18.10;;;6.68;;
67869;SDS011;54673;52.262;6.830;2024-01-30T09:44:28;17.88;;;6.63;;
67869;SDS011;54673;52.262;6.830;2024-01-30T09:46:55;15.20;;;6.32;;
67869;SDS011;54673;52.262;6.830;2024-01-30T09:49:23;14.98;;;6.30;;
67869;SDS011;54673;52.262;6.830;2024-01-30T09:51:50;11.53;;;5.93;;
67869;SDS011;54673;52.262;6.830;2024-01-30T09:54:17;11.55;;;6.95;;
67869;SDS011;54673;52.262;6.830;2024-01-30T09:56:44;19.10;;;7.65;;
67869;SDS011;54673;52.262;6.830;2024-01-30T09:59:10;12.95;;;6.30;;
67869;SDS011;54673;52.262;6.830;2024-01-30T10:01:36;15.17;;;6.77;;
67869;SDS011;54673;52.262;6.830;2024-01-30T10:04:01;13.07;;;6.50;;
67869;SDS011;54673;52.262;6.830;2024-01-30T10:06:27;11.30;;;5.73;;
67869;SDS011;54673;52.262;6.830;2024-01-30T10:08:53;11.77;;;6.32;;
67869;SDS011;54673;52.262;6.830;2024-01-30T10:11:19;16.30;;;7.47;;
67869;SDS011;54673;52.262;6.830;2024-01-30T10:13:44;13.73;;;6.60;;
67869;SDS011;54673;52.262;6.830;2024-01-30T10:16:13;10.10;;;6.43;;
67869;SDS011;54673;52.262;6.830;2024-01-30T10:18:40;14.60;;;6.60;;
67869;SDS011;54673;52.262;6.830;2024-01-30T10:21:06;12.90;;;5.35;;
67869;SDS011;54673;52.262;6.830;2024-01-30T10:23:32;13.50;;;6.43;;
67869;SDS011;54673;52.262;6.830;2024-01-30T10:25:59;15.00;;;7.07;;
67869;SDS011;54673;52.262;6.830;2024-01-30T10:28:26;11.87;;;6.07;;
67869;SDS011;54673;52.262;6.830;2024-01-30T10:31:00;14.98;;;7.45;;
67869;SDS011;54673;52.262;6.830;2024-01-30T10:33:28;11.90;;;6.20;;
67869;SDS011;54673;52.262;6.830;2024-01-30T10:35:56;12.00;;;6.80;;
67869;SDS011;54673;52.262;6.830;2024-01-30T10:38:26;16.35;;;7.47;;
67869;SDS011;54673;52.262;6.830;2024-01-30T10:40:56;14.23;;;6.70;;
67869;SDS011;54673;52.262;6.830;2024-01-30T10:43:22;14.55;;;6.80;;
67869;SDS011;54673;52.262;6.830;2024-01-30T10:45:53;15.57;;;6.53;;
67869;SDS011;54673;52.262;6.830;2024-01-30T10:48:22;13.50;;;6.63;;
67869;SDS011;54673;52.262;6.830;2024-01-30T10:50:54;17.45;;;6.32;;
67869;SDS011;54673;52.262;6.830;2024-01-30T10:53:22;10.00;;;5.20;;
67869;SDS011;54673;52.262;6.830;2024-01-30T10:55:48;9.27;;;4.75;;
67869;SDS011;54673;52.262;6.830;2024-01-30T10:58:16;16.87;;;7.07;;
67869;SDS011;54673;52.262;6.830;2024-01-30T11:00:43;16.02;;;7.53;;
67869;SDS011;54673;52.262;6.830;2024-01-30T11:03:10;14.77;;;7.03;;
67869;SDS011;54673;52.262;6.830;2024-01-30T11:05:36;13.33;;;6.13;;
67869;SDS011;54673;52.262;6.830;2024-01-30T11:08:12;13.15;;;6.75;;
67869;SDS011;54673;52.262;6.830;2024-01-30T11:10:47;16.80;;;7.27;;
67869;SDS011;54673;52.262;6.830;2024-01-30T11:13:13;13.27;;;6.75;;
67869;SDS011;54673;52.262;6.830;2024-01-30T11:15:39;15.20;;;6.95;;
67869;SDS011;54673;52.262;6.830;2024-01-30T11:18:05;13.73;;;7.07;;
67869;SDS011;54673;52.262;6.830;2024-01-30T11:20:31;10.75;;;6.00;;
67869;SDS011;54673;52.262;6.830;2024-01-30T11:22:57;21.33;;;8.00;;
67869;SDS011;54673;52.262;6.830;2024-01-30T11:25:25;18.20;;;7.80;;
67869;SDS011;54673;52.262;6.830;2024-01-30T11:27:52;12.90;;;5.97;;
67869;SDS011;54673;52.262;6.830;2024-01-30T11:35:52;10.37;;;5.53;;
67869;SDS011;54673;52.262;6.830;2024-01-30T11:38:18;15.13;;;6.90;;
67869;SDS011;54673;52.262;6.830;2024-01-30T11:40:44;11.43;;;6.30;;
67869;SDS011;54673;52.262;6.830;2024-01-30T11:43:10;12.93;;;4.97;;
67869;SDS011;54673;52.262;6.830;2024-01-30T11:45:37;16.25;;;7.18;;
67869;SDS011;54673;52.262;6.830;2024-01-30T11:48:03;16.57;;;6.77;;
67869;SDS011;54673;52.262;6.830;2024-01-30T11:50:30;12.65;;;6.43;;
67869;SDS011;54673;52.262;6.830;2024-01-30T11:52:59;16.23;;;6.47;;
67869;SDS011;54673;52.262;6.830;2024-01-30T11:55:25;16.58;;;8.27;;
67869;SDS011;54673;52.262;6.830;2024-01-30T11:57:51;13.20;;;7.28;;
67869;SDS011;54673;52.262;6.830;2024-01-30T12:00:20;20.03;;;8.30;;
67869;SDS011;54673;52.262;6.830;2024-01-30T12:02:49;19.10;;;7.72;;
67869;SDS011;54673;52.262;6.830;2024-01-30T12:05:16;12.90;;;6.87;;
67869;SDS011;54673;52.262;6.830;2024-01-30T12:07:44;15.00;;;7.57;;
67869;SDS011;54673;52.262;6.830;2024-01-30T12:10:11;19.63;;;6.80;;
67869;SDS011;54673;52.262;6.830;2024-01-30T12:12:39;17.67;;;6.95;;
67869;SDS011;54673;52.262;6.830;2024-01-30T12:15:06;12.02;;;6.30;;
67869;SDS011;54673;52.262;6.830;2024-01-30T12:17:33;17.87;;;7.10;;
67869;SDS011;54673;52.262;6.830;2024-01-30T12:20:08;14.38;;;6.25;;
67869;SDS011;54673;52.262;6.830;2024-01-30T12:22:39;12.97;;;6.40;;
67869;SDS011;54673;52.262;6.830;2024-01-30T12:25:07;13.43;;;6.65;;
67869;SDS011;54673;52.262;6.830;2024-01-30T12:27:34;13.57;;;7.78;;
67869;SDS011;54673;52.262;6.830;2024-01-30T12:30:00;14.27;;;6.57;;
67869;SDS011;54673;52.262;6.830;2024-01-30T12:32:25;15.85;;;7.35;;
67869;SDS011;54673;52.262;6.830;2024-01-30T12:34:54;17.73;;;8.00;;
67869;SDS011;54673;52.262;6.830;2024-01-30T12:37:21;16.13;;;7.30;;
67869;SDS011;54673;52.262;6.830;2024-01-30T12:39:49;16.33;;;7.80;;
67869;SDS011;54673;52.262;6.830;2024-01-30T12:42:16;11.38;;;6.22;;
67869;SDS011;54673;52.262;6.830;2024-01-30T12:44:42;13.13;;;7.03;;
67869;SDS011;54673;52.262;6.830;2024-01-30T12:47:08;15.80;;;7.03;;
67869;SDS011;54673;52.262;6.830;2024-01-30T12:49:35;13.48;;;6.70;;
67869;SDS011;54673;52.262;6.830;2024-01-30T12:52:00;13.10;;;6.97;;
67869;SDS011;54673;52.262;6.830;2024-01-30T12:54:26;11.07;;;6.90;;
67869;SDS011;54673;52.262;6.830;2024-01-30T12:56:52;15.15;;;7.30;;
67869;SDS011;54673;52.262;6.830;2024-01-30T12:59:18;15.70;;;7.20;;
67869;SDS011;54673;52.262;6.830;2024-01-30T13:01:43;12.17;;;6.67;;
67869;SDS011;54673;52.262;6.830;2024-01-30T13:04:09;15.00;;;6.63;;
67869;SDS011;54673;52.262;6.830;2024-01-30T13:06:34;13.38;;;6.82;;
67869;SDS011;54673;52.262;6.830;2024-01-30T13:09:00;13.10;;;6.47;;
67869;SDS011;54673;52.262;6.830;2024-01-30T13:11:26;13.00;;;5.97;;
67869;SDS011;54673;52.262;6.830;2024-01-30T13:13:51;10.82;;;5.90;;
67869;SDS011;54673;52.262;6.830;2024-01-30T13:16:17;11.87;;;4.80;;
67869;SDS011;54673;52.262;6.830;2024-01-30T13:18:43;9.60;;;5.53;;
67869;SDS011;54673;52.262;6.830;2024-01-30T13:21:09;14.00;;;5.90;;
67869;SDS011;54673;52.262;6.830;2024-01-30T13:23:35;13.13;;;5.88;;
67869;SDS011;54673;52.262;6.830;2024-01-30T13:26:00;13.80;;;5.80;;
67869;SDS011;54673;52.262;6.830;2024-01-30T13:28:26;11.75;;;5.53;;
67869;SDS011;54673;52.262;6.830;2024-01-30T13:30:51;11.67;;;6.27;;
67869;SDS011;54673;52.262;6.830;2024-01-30T13:33:17;9.93;;;6.00;;
67869;SDS011;54673;52.262;6.830;2024-01-30T13:35:43;12.60;;;5.63;;
67869;SDS011;54673;52.262;6.830;2024-01-30T13:38:08;12.70;;;5.97;;
67869;SDS011;54673;52.262;6.830;2024-01-30T13:40:34;9.90;;;5.27;;
67869;SDS011;54673;52.262;6.830;2024-01-30T13:42:59;9.60;;;4.88;;
67869;SDS011;54673;52.262;6.830;2024-01-30T13:45:25;10.93;;;6.10;;
67869;SDS011;54673;52.262;6.830;2024-01-30T13:47:50;12.77;;;5.20;;
67869;SDS011;54673;52.262;6.830;2024-01-30T13:50:16;10.97;;;5.60;;
67869;SDS011;54673;52.262;6.830;2024-01-30T13:52:42;10.73;;;4.73;;
67869;SDS011;54673;52.262;6.830;2024-01-30T13:55:08;10.43;;;4.80;;
67869;SDS011;54673;52.262;6.830;2024-01-30T13:57:35;8.97;;;4.90;;
67869;SDS011;54673;52.262;6.830;2024-01-30T14:00:01;7.30;;;4.05;;
67869;SDS011;54673;52.262;6.830;2024-01-30T14:02:31;8.15;;;4.43;;
67869;SDS011;54673;52.262;6.830;2024-01-30T14:04:57;8.80;;;4.13;;
67869;SDS011;54673;52.262;6.830;2024-01-30T14:07:22;10.20;;;3.63;;
67869;SDS011;54673;52.262;6.830;2024-01-30T14:09:48;10.63;;;3.92;;
67869;SDS011;54673;52.262;6.830;2024-01-30T14:12:14;5.83;;;3.37;;
67869;SDS011;54673;52.262;6.830;2024-01-30T14:14:40;9.32;;;2.88;;
67869;SDS011;54673;52.262;6.830;2024-01-30T14:17:06;9.45;;;2.95;;
67869;SDS011;54673;52.262;6.830;2024-01-30T14:19:32;5.57;;;2.63;;
67869;SDS011;54673;52.262;6.830;2024-01-30T14:21:59;4.05;;;1.90;;
67869;SDS011;54673;52.262;6.830;2024-01-30T14:24:24;2.53;;;1.57;;
67869;SDS011;54673;52.262;6.830;2024-01-30T14:26:50;3.97;;;1.77;;
67869;SDS011;54673;52.262;6.830;2024-01-30T14:29:17;3.40;;;1.50;;
67869;SDS011;54673;52.262;6.830;2024-01-30T14:31:42;6.10;;;1.43;;
67869;SDS011;54673;52.262;6.830;2024-01-30T14:34:08;3.90;;;1.37;;
67869;SDS011;54673;52.262;6.830;2024-01-30T14:36:35;5.00;;;1.47;;